sensor_id;sensor_type;location;lat;lon;timestamp;P1;durP1;ratioP1;P2;durP2;ratioP2
6053;SDS011;3055;50.886;14.814;2022-07-24T00:01:01;13.13;;;11.93;;
6053;SDS011;3055;50.886;14.814;2022-07-24T00:03:28;13.83;;;12.43;;
6053;SDS011;3055;50.886;14.814;2022-07-24T00:05:55;13.33;;;12.03;;
6053;SDS011;3055;50.886;14.814;2022-07-24T00:08:22;13.43;;;12.23;;
6053;SDS011;3055;50.886;14.814;2022-07-24T00:10:50;14.50;;;13.10;;
6053;SDS011;3055;50.886;14.814;2022-07-24T00:13:17;14.20;;;12.73;;
6053;SDS011;3055;50.886;14.814;2022-07-24T00:15:44;15.07;;;13.57;;
6053;SDS011;3055;50.886;14.814;2022-07-24T00:18:11;13.03;;;11.83;;
6053;SDS011;3055;50.886;14.814;2022-07-24T00:20:38;13.07;;;11.77;;
6053;SDS011;3055;50.886;14.814;2022-07-24T00:23:05;14.13;;;12.70;;
6053;SDS011;3055;50.886;14.814;2022-07-24T00:25:32;13.93;;;12.63;;
6053;SDS011;3055;50.886;14.814;2022-07-24T00:28:00;14.33;;;12.83;;
6053;SDS011;3055;50.886;14.814;2022-07-24T00:30:27;13.80;;;12.30;;
6053;SDS011;3055;50.886;14.814;2022-07-24T00:32:54;12.80;;;11.70;;
6053;SDS011;3055;50.886;14.814;2022-07-24T00:35:21;13.00;;;11.90;;
6053;SDS011;3055;50.886;14.814;2022-07-24T00:37:48;12.87;;;11.57;;
6053;SDS011;3055;50.886;14.814;2022-07-24T00:40:15;13.40;;;12.10;;
6053;SDS011;3055;50.886;14.814;2022-07-24T00:42:42;12.70;;;11.50;;
6053;SDS011;3055;50.886;14.814;2022-07-24T00:45:10;13.03;;;11.80;;
6053;SDS011;3055;50.886;14.814;2022-07-24T00:47:38;13.50;;;12.13;;
6053;SDS011;3055;50.886;14.814;2022-07-24T00:50:05;14.13;;;12.73;;
6053;SDS011;3055;50.886;14.814;2022-07-24T00:52:32;13.87;;;12.53;;
6053;SDS011;3055;50.886;14.814;2022-07-24T00:54:59;14.30;;;12.80;;
6053;SDS011;3055;50.886;14.814;2022-07-24T00:57:26;13.60;;;12.30;;
6053;SDS011;3055;50.886;14.814;2022-07-24T00:59:53;14.03;;;12.63;;
6053;SDS011;3055;50.886;14.814;2022-07-24T01:02:22;14.03;;;12.63;;
6053;SDS011;3055;50.886;14.814;2022-07-24T01:04:49;14.17;;;12.87;;
6053;SDS011;3055;50.886;14.814;2022-07-24T01:07:17;13.40;;;12.20;;
6053;SDS011;3055;50.886;14.814;2022-07-24T01:09:44;14.53;;;13.13;;
6053;SDS011;3055;50.886;14.814;2022-07-24T01:12:11;14.33;;;12.93;;
6053;SDS011;3055;50.886;14.814;2022-07-24T01:14:38;12.87;;;11.60;;
6053;SDS011;3055;50.886;14.814;2022-07-24T01:17:05;14.47;;;13.13;;
6053;SDS011;3055;50.886;14.814;2022-07-24T01:19:34;15.07;;;13.37;;
6053;SDS011;3055;50.886;14.814;2022-07-24T01:22:02;14.30;;;12.60;;
6053;SDS011;3055;50.886;14.814;2022-07-24T01:24:29;12.87;;;11.57;;
6053;SDS011;3055;50.886;14.814;2022-07-24T01:26:56;13.33;;;12.03;;
6053;SDS011;3055;50.886;14.814;2022-07-24T01:29:23;12.97;;;11.77;;
6053;SDS011;3055;50.886;14.814;2022-07-24T01:31:50;14.00;;;12.60;;
6053;SDS011;3055;50.886;14.814;2022-07-24T01:34:17;14.37;;;12.87;;
6053;SDS011;3055;50.886;14.814;2022-07-24T01:36:44;14.00;;;12.67;;
6053;SDS011;3055;50.886;14.814;2022-07-24T01:39:12;15.03;;;12.10;;
6053;SDS011;3055;50.886;14.814;2022-07-24T01:41:39;12.93;;;11.73;;
6053;SDS011;3055;50.886;14.814;2022-07-24T01:44:06;13.70;;;12.50;;
6053;SDS011;3055;50.886;14.814;2022-07-24T01:46:33;14.47;;;13.03;;
6053;SDS011;3055;50.886;14.814;2022-07-24T01:49:00;13.13;;;11.90;;
6053;SDS011;3055;50.886;14.814;2022-07-24T01:51:27;12.27;;;11.17;;
6053;SDS011;3055;50.886;14.814;2022-07-24T01:53:55;13.03;;;11.77;;
6053;SDS011;3055;50.886;14.814;2022-07-24T01:56:23;12.47;;;11.30;;
6053;SDS011;3055;50.886;14.814;2022-07-24T01:58:50;12.93;;;11.73;;
6053;SDS011;3055;50.886;14.814;2022-07-24T02:01:17;12.23;;;11.13;;
6053;SDS011;3055;50.886;14.814;2022-07-24T02:03:44;13.33;;;12.13;;
6053;SDS011;3055;50.886;14.814;2022-07-24T02:06:11;12.10;;;11.00;;
6053;SDS011;3055;50.886;14.814;2022-07-24T02:08:38;12.90;;;11.70;;
6053;SDS011;3055;50.886;14.814;2022-07-24T02:11:05;12.53;;;11.23;;
6053;SDS011;3055;50.886;14.814;2022-07-24T02:13:33;14.27;;;12.97;;
6053;SDS011;3055;50.886;14.814;2022-07-24T02:16:00;13.03;;;11.73;;
6053;SDS011;3055;50.886;14.814;2022-07-24T02:18:28;13.13;;;11.63;;
6053;SDS011;3055;50.886;14.814;2022-07-24T02:20:55;12.60;;;11.40;;
6053;SDS011;3055;50.886;14.814;2022-07-24T02:23:21;13.73;;;12.53;;
6053;SDS011;3055;50.886;14.814;2022-07-24T02:25:49;12.73;;;11.53;;
6053;SDS011;3055;50.886;14.814;2022-07-24T02:28:16;13.43;;;12.13;;
6053;SDS011;3055;50.886;14.814;2022-07-24T02:30:45;14.03;;;11.77;;
6053;SDS011;3055;50.886;14.814;2022-07-24T02:33:12;12.37;;;11.13;;
6053;SDS011;3055;50.886;14.814;2022-07-24T02:35:39;12.23;;;11.13;;
6053;SDS011;3055;50.886;14.814;2022-07-24T02:38:06;12.00;;;10.80;;
6053;SDS011;3055;50.886;14.814;2022-07-24T02:40:33;12.63;;;11.53;;
6053;SDS011;3055;50.886;14.814;2022-07-24T02:43:00;12.77;;;11.57;;
6053;SDS011;3055;50.886;14.814;2022-07-24T02:45:27;13.67;;;12.27;;
6053;SDS011;3055;50.886;14.814;2022-07-24T02:47:57;12.37;;;11.10;;
6053;SDS011;3055;50.886;14.814;2022-07-24T02:50:24;12.47;;;11.27;;
6053;SDS011;3055;50.886;14.814;2022-07-24T02:52:55;12.43;;;11.23;;
6053;SDS011;3055;50.886;14.814;2022-07-24T02:55:22;13.57;;;12.27;;
6053;SDS011;3055;50.886;14.814;2022-07-24T02:57:49;13.50;;;12.30;;
6053;SDS011;3055;50.886;14.814;2022-07-24T03:00:16;12.80;;;11.53;;
6053;SDS011;3055;50.886;14.814;2022-07-24T03:02:44;12.70;;;11.47;;
6053;SDS011;3055;50.886;14.814;2022-07-24T03:05:12;12.70;;;11.50;;
6053;SDS011;3055;50.886;14.814;2022-07-24T03:07:39;13.87;;;12.43;;
6053;SDS011;3055;50.886;14.814;2022-07-24T03:10:08;12.57;;;11.37;;
6053;SDS011;3055;50.886;14.814;2022-07-24T03:12:37;12.30;;;11.10;;
6053;SDS011;3055;50.886;14.814;2022-07-24T03:15:05;12.63;;;11.33;;
6053;SDS011;3055;50.886;14.814;2022-07-24T03:17:32;12.70;;;11.50;;
6053;SDS011;3055;50.886;14.814;2022-07-24T03:19:59;12.90;;;11.60;;
6053;SDS011;3055;50.886;14.814;2022-07-24T03:22:28;12.77;;;11.37;;
6053;SDS011;3055;50.886;14.814;2022-07-24T03:24:55;12.87;;;11.67;;
6053;SDS011;3055;50.886;14.814;2022-07-24T03:27:22;13.13;;;11.87;;
6053;SDS011;3055;50.886;14.814;2022-07-24T03:29:49;12.07;;;10.97;;
6053;SDS011;3055;50.886;14.814;2022-07-24T03:32:16;13.23;;;10.80;;
6053;SDS011;3055;50.886;14.814;2022-07-24T03:34:43;12.47;;;11.30;;
6053;SDS011;3055;50.886;14.814;2022-07-24T03:37:10;12.57;;;11.37;;
6053;SDS011;3055;50.886;14.814;2022-07-24T03:39:38;12.23;;;10.93;;
6053;SDS011;3055;50.886;14.814;2022-07-24T03:42:05;12.87;;;11.63;;
6053;SDS011;3055;50.886;14.814;2022-07-24T03:44:32;12.93;;;11.73;;
6053;SDS011;3055;50.886;14.814;2022-07-24T03:46:59;13.77;;;12.30;;
6053;SDS011;3055;50.886;14.814;2022-07-24T03:49:26;11.87;;;10.77;;
6053;SDS011;3055;50.886;14.814;2022-07-24T03:51:52;11.53;;;10.43;;
6053;SDS011;3055;50.886;14.814;2022-07-24T03:54:19;12.90;;;11.70;;
6053;SDS011;3055;50.886;14.814;2022-07-24T03:56:48;11.43;;;10.20;;
6053;SDS011;3055;50.886;14.814;2022-07-24T03:59:15;14.63;;;11.30;;
6053;SDS011;3055;50.886;14.814;2022-07-24T04:01:42;12.20;;;11.17;;
6053;SDS011;3055;50.886;14.814;2022-07-24T04:04:09;12.03;;;10.93;;
6053;SDS011;3055;50.886;14.814;2022-07-24T04:06:36;12.27;;;11.07;;
6053;SDS011;3055;50.886;14.814;2022-07-24T04:09:03;12.83;;;11.17;;
6053;SDS011;3055;50.886;14.814;2022-07-24T04:11:31;11.97;;;10.80;;
6053;SDS011;3055;50.886;14.814;2022-07-24T04:13:59;10.77;;;9.77;;
6053;SDS011;3055;50.886;14.814;2022-07-24T04:16:26;11.17;;;10.07;;
6053;SDS011;3055;50.886;14.814;2022-07-24T04:18:53;11.27;;;10.17;;
6053;SDS011;3055;50.886;14.814;2022-07-24T04:21:20;10.63;;;9.60;;
6053;SDS011;3055;50.886;14.814;2022-07-24T04:23:47;10.83;;;9.63;;
6053;SDS011;3055;50.886;14.814;2022-07-24T04:26:14;10.40;;;9.40;;
6053;SDS011;3055;50.886;14.814;2022-07-24T04:28:41;10.97;;;10.00;;
6053;SDS011;3055;50.886;14.814;2022-07-24T04:31:10;11.13;;;10.13;;
6053;SDS011;3055;50.886;14.814;2022-07-24T04:33:37;11.63;;;10.43;;
6053;SDS011;3055;50.886;14.814;2022-07-24T04:36:04;11.20;;;10.00;;
6053;SDS011;3055;50.886;14.814;2022-07-24T04:38:31;10.70;;;9.80;;
6053;SDS011;3055;50.886;14.814;2022-07-24T04:40:58;10.70;;;9.70;;
6053;SDS011;3055;50.886;14.814;2022-07-24T04:43:26;9.87;;;8.47;;
6053;SDS011;3055;50.886;14.814;2022-07-24T04:45:53;9.17;;;8.37;;
6053;SDS011;3055;50.886;14.814;2022-07-24T04:48:22;9.30;;;8.40;;
6053;SDS011;3055;50.886;14.814;2022-07-24T04:50:50;8.10;;;7.40;;
6053;SDS011;3055;50.886;14.814;2022-07-24T04:53:17;10.10;;;8.20;;
6053;SDS011;3055;50.886;14.814;2022-07-24T04:55:44;8.57;;;7.80;;
6053;SDS011;3055;50.886;14.814;2022-07-24T04:58:11;8.40;;;7.70;;
6053;SDS011;3055;50.886;14.814;2022-07-24T05:00:38;7.73;;;7.03;;
6053;SDS011;3055;50.886;14.814;2022-07-24T05:03:06;8.50;;;7.23;;
6053;SDS011;3055;50.886;14.814;2022-07-24T05:05:34;10.57;;;7.70;;
6053;SDS011;3055;50.886;14.814;2022-07-24T05:08:01;7.60;;;6.77;;
6053;SDS011;3055;50.886;14.814;2022-07-24T05:10:28;6.67;;;6.10;;
6053;SDS011;3055;50.886;14.814;2022-07-24T05:12:55;8.50;;;7.70;;
6053;SDS011;3055;50.886;14.814;2022-07-24T05:15:22;7.87;;;7.10;;
6053;SDS011;3055;50.886;14.814;2022-07-24T05:17:49;8.00;;;7.30;;
6053;SDS011;3055;50.886;14.814;2022-07-24T05:20:16;7.50;;;6.90;;
6053;SDS011;3055;50.886;14.814;2022-07-24T05:22:44;7.63;;;6.87;;
6053;SDS011;3055;50.886;14.814;2022-07-24T05:25:11;7.73;;;6.93;;
6053;SDS011;3055;50.886;14.814;2022-07-24T05:27:38;8.37;;;7.60;;
6053;SDS011;3055;50.886;14.814;2022-07-24T05:30:06;8.50;;;7.50;;
6053;SDS011;3055;50.886;14.814;2022-07-24T05:32:33;8.63;;;7.57;;
6053;SDS011;3055;50.886;14.814;2022-07-24T05:35:00;8.60;;;7.80;;
6053;SDS011;3055;50.886;14.814;2022-07-24T05:37:27;9.17;;;8.13;;
6053;SDS011;3055;50.886;14.814;2022-07-24T05:39:56;10.20;;;7.97;;
6053;SDS011;3055;50.886;14.814;2022-07-24T05:42:23;9.40;;;8.43;;
6053;SDS011;3055;50.886;14.814;2022-07-24T05:44:50;8.50;;;7.40;;
6053;SDS011;3055;50.886;14.814;2022-07-24T05:47:17;7.13;;;6.47;;
6053;SDS011;3055;50.886;14.814;2022-07-24T05:49:44;7.60;;;6.73;;
6053;SDS011;3055;50.886;14.814;2022-07-24T05:52:11;8.43;;;7.03;;
6053;SDS011;3055;50.886;14.814;2022-07-24T05:54:38;8.07;;;7.20;;
6053;SDS011;3055;50.886;14.814;2022-07-24T05:57:06;5.83;;;5.33;;
6053;SDS011;3055;50.886;14.814;2022-07-24T05:59:33;8.67;;;6.87;;
6053;SDS011;3055;50.886;14.814;2022-07-24T06:02:00;6.87;;;6.27;;
6053;SDS011;3055;50.886;14.814;2022-07-24T06:04:29;7.60;;;6.20;;
6053;SDS011;3055;50.886;14.814;2022-07-24T06:06:56;9.20;;;6.47;;
6053;SDS011;3055;50.886;14.814;2022-07-24T06:09:23;7.07;;;6.30;;
6053;SDS011;3055;50.886;14.814;2022-07-24T06:11:50;6.93;;;6.23;;
6053;SDS011;3055;50.886;14.814;2022-07-24T06:14:18;8.67;;;6.10;;
6053;SDS011;3055;50.886;14.814;2022-07-24T06:16:45;7.20;;;6.07;;
6053;SDS011;3055;50.886;14.814;2022-07-24T06:19:13;6.87;;;5.40;;
6053;SDS011;3055;50.886;14.814;2022-07-24T06:21:40;7.73;;;5.10;;
6053;SDS011;3055;50.886;14.814;2022-07-24T06:24:07;5.00;;;4.60;;
6053;SDS011;3055;50.886;14.814;2022-07-24T06:26:34;6.23;;;5.00;;
6053;SDS011;3055;50.886;14.814;2022-07-24T06:29:01;7.10;;;4.80;;
6053;SDS011;3055;50.886;14.814;2022-07-24T06:31:29;5.00;;;3.93;;
6053;SDS011;3055;50.886;14.814;2022-07-24T06:33:56;4.40;;;3.60;;
6053;SDS011;3055;50.886;14.814;2022-07-24T06:36:23;4.30;;;3.90;;
6053;SDS011;3055;50.886;14.814;2022-07-24T06:38:50;4.63;;;4.10;;
6053;SDS011;3055;50.886;14.814;2022-07-24T06:41:17;7.07;;;4.27;;
6053;SDS011;3055;50.886;14.814;2022-07-24T06:43:44;4.53;;;3.10;;
6053;SDS011;3055;50.886;14.814;2022-07-24T06:46:11;5.50;;;3.43;;
6053;SDS011;3055;50.886;14.814;2022-07-24T06:48:39;4.27;;;3.10;;
6053;SDS011;3055;50.886;14.814;2022-07-24T06:51:06;5.73;;;3.63;;
6053;SDS011;3055;50.886;14.814;2022-07-24T06:53:33;5.83;;;3.77;;
6053;SDS011;3055;50.886;14.814;2022-07-24T06:56:01;3.97;;;3.13;;
6053;SDS011;3055;50.886;14.814;2022-07-24T06:58:28;3.10;;;2.80;;
6053;SDS011;3055;50.886;14.814;2022-07-24T07:00:55;4.47;;;2.53;;
6053;SDS011;3055;50.886;14.814;2022-07-24T07:03:22;2.80;;;2.47;;
6053;SDS011;3055;50.886;14.814;2022-07-24T07:05:51;2.50;;;1.80;;
6053;SDS011;3055;50.886;14.814;2022-07-24T07:08:17;2.67;;;1.97;;
6053;SDS011;3055;50.886;14.814;2022-07-24T07:10:44;2.57;;;2.20;;
6053;SDS011;3055;50.886;14.814;2022-07-24T07:13:11;4.23;;;2.20;;
6053;SDS011;3055;50.886;14.814;2022-07-24T07:15:38;3.83;;;2.47;;
6053;SDS011;3055;50.886;14.814;2022-07-24T07:18:05;2.43;;;1.97;;
6053;SDS011;3055;50.886;14.814;2022-07-24T07:20:32;1.90;;;1.43;;
6053;SDS011;3055;50.886;14.814;2022-07-24T07:23:01;2.40;;;1.87;;
6053;SDS011;3055;50.886;14.814;2022-07-24T07:25:28;2.53;;;1.73;;
6053;SDS011;3055;50.886;14.814;2022-07-24T07:27:54;1.67;;;1.57;;
6053;SDS011;3055;50.886;14.814;2022-07-24T07:30:21;2.37;;;1.50;;
6053;SDS011;3055;50.886;14.814;2022-07-24T07:32:48;1.40;;;1.30;;
6053;SDS011;3055;50.886;14.814;2022-07-24T07:35:16;1.50;;;1.40;;
6053;SDS011;3055;50.886;14.814;2022-07-24T07:37:44;1.40;;;1.30;;
6053;SDS011;3055;50.886;14.814;2022-07-24T07:40:12;1.60;;;1.30;;
6053;SDS011;3055;50.886;14.814;2022-07-24T07:42:39;3.27;;;1.40;;
6053;SDS011;3055;50.886;14.814;2022-07-24T07:45:06;2.50;;;1.57;;
6053;SDS011;3055;50.886;14.814;2022-07-24T07:47:35;2.27;;;1.33;;
6053;SDS011;3055;50.886;14.814;2022-07-24T07:50:02;1.60;;;1.30;;
6053;SDS011;3055;50.886;14.814;2022-07-24T07:52:29;3.07;;;1.60;;
6053;SDS011;3055;50.886;14.814;2022-07-24T07:54:56;3.13;;;1.33;;
6053;SDS011;3055;50.886;14.814;2022-07-24T07:57:25;1.60;;;1.50;;
6053;SDS011;3055;50.886;14.814;2022-07-24T07:59:52;1.53;;;1.23;;
6053;SDS011;3055;50.886;14.814;2022-07-24T08:02:19;2.97;;;1.27;;
6053;SDS011;3055;50.886;14.814;2022-07-24T08:04:45;2.30;;;1.30;;
6053;SDS011;3055;50.886;14.814;2022-07-24T08:07:12;1.67;;;1.47;;
6053;SDS011;3055;50.886;14.814;2022-07-24T08:09:40;2.27;;;1.17;;
6053;SDS011;3055;50.886;14.814;2022-07-24T08:12:07;1.20;;;1.13;;
6053;SDS011;3055;50.886;14.814;2022-07-24T08:14:35;1.10;;;1.00;;
6053;SDS011;3055;50.886;14.814;2022-07-24T08:17:03;1.17;;;0.93;;
6053;SDS011;3055;50.886;14.814;2022-07-24T08:19:30;1.27;;;1.13;;
6053;SDS011;3055;50.886;14.814;2022-07-24T08:21:57;2.90;;;1.37;;
6053;SDS011;3055;50.886;14.814;2022-07-24T08:24:23;2.07;;;1.10;;
6053;SDS011;3055;50.886;14.814;2022-07-24T08:26:50;1.93;;;1.30;;
6053;SDS011;3055;50.886;14.814;2022-07-24T08:29:17;1.47;;;1.07;;
6053;SDS011;3055;50.886;14.814;2022-07-24T08:31:45;1.77;;;0.97;;
6053;SDS011;3055;50.886;14.814;2022-07-24T08:34:12;1.87;;;1.00;;
6053;SDS011;3055;50.886;14.814;2022-07-24T08:36:39;1.27;;;0.93;;
6053;SDS011;3055;50.886;14.814;2022-07-24T08:39:09;2.07;;;1.00;;
6053;SDS011;3055;50.886;14.814;2022-07-24T08:41:36;2.03;;;0.87;;
6053;SDS011;3055;50.886;14.814;2022-07-24T08:44:04;0.90;;;0.87;;
6053;SDS011;3055;50.886;14.814;2022-07-24T08:46:31;1.40;;;0.90;;
6053;SDS011;3055;50.886;14.814;2022-07-24T08:49:00;1.63;;;1.10;;
6053;SDS011;3055;50.886;14.814;2022-07-24T08:51:30;1.23;;;1.13;;
6053;SDS011;3055;50.886;14.814;2022-07-24T08:53:58;1.13;;;1.03;;
6053;SDS011;3055;50.886;14.814;2022-07-24T08:56:27;0.90;;;0.90;;
6053;SDS011;3055;50.886;14.814;2022-07-24T08:58:55;2.27;;;1.00;;
6053;SDS011;3055;50.886;14.814;2022-07-24T09:01:22;2.23;;;0.93;;
6053;SDS011;3055;50.886;14.814;2022-07-24T09:03:49;1.63;;;1.07;;
6053;SDS011;3055;50.886;14.814;2022-07-24T09:06:17;1.60;;;0.93;;
6053;SDS011;3055;50.886;14.814;2022-07-24T09:08:56;7.80;;;1.20;;
6053;SDS011;3055;50.886;14.814;2022-07-24T09:11:27;2.37;;;0.97;;
6053;SDS011;3055;50.886;14.814;2022-07-24T09:13:58;1.70;;;1.10;;
6053;SDS011;3055;50.886;14.814;2022-07-24T09:16:44;1.17;;;0.80;;
6053;SDS011;3055;50.886;14.814;2022-07-24T09:19:11;0.97;;;0.87;;
6053;SDS011;3055;50.886;14.814;2022-07-24T09:21:42;0.77;;;0.70;;
6053;SDS011;3055;50.886;14.814;2022-07-24T09:24:14;1.00;;;1.00;;
6053;SDS011;3055;50.886;14.814;2022-07-24T09:26:44;2.73;;;1.27;;
6053;SDS011;3055;50.886;14.814;2022-07-24T09:29:12;1.20;;;1.10;;
6053;SDS011;3055;50.886;14.814;2022-07-24T09:31:52;2.63;;;0.80;;
6053;SDS011;3055;50.886;14.814;2022-07-24T09:34:20;1.20;;;1.00;;
6053;SDS011;3055;50.886;14.814;2022-07-24T09:36:59;1.40;;;1.23;;
6053;SDS011;3055;50.886;14.814;2022-07-24T09:39:28;2.80;;;1.00;;
6053;SDS011;3055;50.886;14.814;2022-07-24T09:41:58;1.07;;;0.93;;
6053;SDS011;3055;50.886;14.814;2022-07-24T09:44:26;1.53;;;1.10;;
6053;SDS011;3055;50.886;14.814;2022-07-24T09:46:55;1.30;;;0.90;;
6053;SDS011;3055;50.886;14.814;2022-07-24T09:49:23;1.20;;;1.10;;
6053;SDS011;3055;50.886;14.814;2022-07-24T09:52:12;2.70;;;1.30;;
6053;SDS011;3055;50.886;14.814;2022-07-24T09:54:41;1.80;;;1.13;;
6053;SDS011;3055;50.886;14.814;2022-07-24T09:57:15;1.10;;;1.00;;
6053;SDS011;3055;50.886;14.814;2022-07-24T09:59:45;0.83;;;0.83;;
6053;SDS011;3055;50.886;14.814;2022-07-24T10:02:13;1.33;;;1.07;;
6053;SDS011;3055;50.886;14.814;2022-07-24T10:04:43;1.20;;;1.03;;
6053;SDS011;3055;50.886;14.814;2022-07-24T10:07:13;1.23;;;0.83;;
6053;SDS011;3055;50.886;14.814;2022-07-24T10:09:41;1.07;;;0.90;;
6053;SDS011;3055;50.886;14.814;2022-07-24T10:12:11;4.23;;;0.83;;
6053;SDS011;3055;50.886;14.814;2022-07-24T10:14:39;1.13;;;0.87;;
6053;SDS011;3055;50.886;14.814;2022-07-24T10:17:07;0.83;;;0.83;;
6053;SDS011;3055;50.886;14.814;2022-07-24T10:19:38;1.73;;;0.60;;
6053;SDS011;3055;50.886;14.814;2022-07-24T10:22:09;1.17;;;0.80;;
6053;SDS011;3055;50.886;14.814;2022-07-24T10:27:26;0.93;;;0.93;;
6053;SDS011;3055;50.886;14.814;2022-07-24T10:29:56;0.90;;;0.90;;
6053;SDS011;3055;50.886;14.814;2022-07-24T10:32:25;0.60;;;0.50;;
6053;SDS011;3055;50.886;14.814;2022-07-24T10:35:08;0.70;;;0.70;;
6053;SDS011;3055;50.886;14.814;2022-07-24T10:37:41;1.47;;;1.10;;
6053;SDS011;3055;50.886;14.814;2022-07-24T10:40:23;1.20;;;0.93;;
6053;SDS011;3055;50.886;14.814;2022-07-24T10:43:09;1.67;;;0.83;;
6053;SDS011;3055;50.886;14.814;2022-07-24T10:45:38;0.60;;;0.60;;
6053;SDS011;3055;50.886;14.814;2022-07-24T10:48:24;0.70;;;0.70;;
6053;SDS011;3055;50.886;14.814;2022-07-24T10:51:02;1.10;;;1.00;;
6053;SDS011;3055;50.886;14.814;2022-07-24T10:53:47;1.60;;;0.70;;
6053;SDS011;3055;50.886;14.814;2022-07-24T10:56:21;2.23;;;0.80;;
6053;SDS011;3055;50.886;14.814;2022-07-24T10:58:51;1.00;;;0.70;;
6053;SDS011;3055;50.886;14.814;2022-07-24T11:01:29;0.90;;;0.90;;
6053;SDS011;3055;50.886;14.814;2022-07-24T11:04:03;1.17;;;0.70;;
6053;SDS011;3055;50.886;14.814;2022-07-24T11:06:50;0.80;;;0.80;;
6053;SDS011;3055;50.886;14.814;2022-07-24T11:09:18;0.90;;;0.90;;
6053;SDS011;3055;50.886;14.814;2022-07-24T11:12:03;1.83;;;0.90;;
6053;SDS011;3055;50.886;14.814;2022-07-24T11:14:48;0.70;;;0.70;;
6053;SDS011;3055;50.886;14.814;2022-07-24T11:20:02;1.97;;;0.90;;
6053;SDS011;3055;50.886;14.814;2022-07-24T11:22:37;1.10;;;0.80;;
6053;SDS011;3055;50.886;14.814;2022-07-24T11:25:09;4.20;;;1.03;;
6053;SDS011;3055;50.886;14.814;2022-07-24T11:27:43;0.87;;;0.60;;
6053;SDS011;3055;50.886;14.814;2022-07-24T11:30:12;1.53;;;1.30;;
6053;SDS011;3055;50.886;14.814;2022-07-24T11:32:40;1.90;;;1.10;;
6053;SDS011;3055;50.886;14.814;2022-07-24T11:35:08;3.53;;;1.40;;
6053;SDS011;3055;50.886;14.814;2022-07-24T11:37:36;2.03;;;0.97;;
6053;SDS011;3055;50.886;14.814;2022-07-24T11:40:05;1.37;;;0.87;;
6053;SDS011;3055;50.886;14.814;2022-07-24T11:42:32;1.50;;;1.10;;
6053;SDS011;3055;50.886;14.814;2022-07-24T11:45:02;0.80;;;0.80;;
6053;SDS011;3055;50.886;14.814;2022-07-24T11:47:30;0.97;;;0.87;;
6053;SDS011;3055;50.886;14.814;2022-07-24T11:49:57;0.80;;;0.80;;
6053;SDS011;3055;50.886;14.814;2022-07-24T11:52:26;1.37;;;0.80;;
6053;SDS011;3055;50.886;14.814;2022-07-24T11:54:56;1.00;;;0.90;;
6053;SDS011;3055;50.886;14.814;2022-07-24T11:57:25;0.73;;;0.73;;
6053;SDS011;3055;50.886;14.814;2022-07-24T11:59:53;2.00;;;1.10;;
6053;SDS011;3055;50.886;14.814;2022-07-24T12:02:21;0.90;;;0.90;;
6053;SDS011;3055;50.886;14.814;2022-07-24T12:04:49;1.00;;;0.87;;
6053;SDS011;3055;50.886;14.814;2022-07-24T12:07:17;2.93;;;0.83;;
6053;SDS011;3055;50.886;14.814;2022-07-24T12:09:46;2.60;;;0.83;;
6053;SDS011;3055;50.886;14.814;2022-07-24T12:12:21;1.17;;;1.07;;
6053;SDS011;3055;50.886;14.814;2022-07-24T12:14:54;1.20;;;1.00;;
6053;SDS011;3055;50.886;14.814;2022-07-24T12:17:29;1.90;;;1.13;;
6053;SDS011;3055;50.886;14.814;2022-07-24T12:19:57;2.47;;;1.00;;
6053;SDS011;3055;50.886;14.814;2022-07-24T12:22:26;2.07;;;1.37;;
6053;SDS011;3055;50.886;14.814;2022-07-24T12:24:54;1.40;;;1.07;;
6053;SDS011;3055;50.886;14.814;2022-07-24T12:27:33;1.20;;;1.10;;
6053;SDS011;3055;50.886;14.814;2022-07-24T12:30:16;1.40;;;0.93;;
6053;SDS011;3055;50.886;14.814;2022-07-24T12:32:55;1.00;;;0.90;;
6053;SDS011;3055;50.886;14.814;2022-07-24T12:35:24;2.57;;;0.77;;
6053;SDS011;3055;50.886;14.814;2022-07-24T12:37:52;1.37;;;0.80;;
6053;SDS011;3055;50.886;14.814;2022-07-24T12:40:22;1.27;;;0.90;;
6053;SDS011;3055;50.886;14.814;2022-07-24T12:45:40;1.70;;;0.83;;
6053;SDS011;3055;50.886;14.814;2022-07-24T12:48:16;1.20;;;1.10;;
6053;SDS011;3055;50.886;14.814;2022-07-24T12:50:57;0.83;;;0.83;;
6053;SDS011;3055;50.886;14.814;2022-07-24T12:53:29;1.57;;;1.20;;
6053;SDS011;3055;50.886;14.814;2022-07-24T12:56:04;2.37;;;1.10;;
6053;SDS011;3055;50.886;14.814;2022-07-24T12:58:52;1.03;;;1.03;;
6053;SDS011;3055;50.886;14.814;2022-07-24T13:01:21;1.00;;;0.90;;
6053;SDS011;3055;50.886;14.814;2022-07-24T13:03:52;0.93;;;0.93;;
6053;SDS011;3055;50.886;14.814;2022-07-24T13:06:29;0.97;;;0.90;;
6053;SDS011;3055;50.886;14.814;2022-07-24T13:09:01;1.00;;;0.90;;
6053;SDS011;3055;50.886;14.814;2022-07-24T13:11:33;1.10;;;0.90;;
6053;SDS011;3055;50.886;14.814;2022-07-24T13:14:01;1.07;;;0.90;;
6053;SDS011;3055;50.886;14.814;2022-07-24T13:16:29;1.10;;;1.00;;
6053;SDS011;3055;50.886;14.814;2022-07-24T13:18:59;1.10;;;1.00;;
6053;SDS011;3055;50.886;14.814;2022-07-24T13:21:27;1.93;;;1.10;;
6053;SDS011;3055;50.886;14.814;2022-07-24T13:23:54;1.63;;;1.10;;
6053;SDS011;3055;50.886;14.814;2022-07-24T13:26:21;0.93;;;0.90;;
6053;SDS011;3055;50.886;14.814;2022-07-24T13:28:49;2.20;;;1.13;;
6053;SDS011;3055;50.886;14.814;2022-07-24T13:31:16;0.90;;;0.90;;
6053;SDS011;3055;50.886;14.814;2022-07-24T13:33:44;1.03;;;0.90;;
6053;SDS011;3055;50.886;14.814;2022-07-24T13:36:13;1.93;;;1.00;;
6053;SDS011;3055;50.886;14.814;2022-07-24T13:38:41;1.20;;;1.10;;
6053;SDS011;3055;50.886;14.814;2022-07-24T13:41:08;1.10;;;1.00;;
6053;SDS011;3055;50.886;14.814;2022-07-24T13:43:35;1.20;;;1.10;;
6053;SDS011;3055;50.886;14.814;2022-07-24T13:46:02;2.90;;;1.07;;
6053;SDS011;3055;50.886;14.814;2022-07-24T13:48:30;1.33;;;1.10;;
6053;SDS011;3055;50.886;14.814;2022-07-24T13:50:57;1.40;;;1.30;;
6053;SDS011;3055;50.886;14.814;2022-07-24T13:53:25;1.20;;;1.10;;
6053;SDS011;3055;50.886;14.814;2022-07-24T13:55:52;1.20;;;1.10;;
6053;SDS011;3055;50.886;14.814;2022-07-24T13:58:19;1.87;;;1.00;;
6053;SDS011;3055;50.886;14.814;2022-07-24T14:00:46;2.40;;;1.37;;
6053;SDS011;3055;50.886;14.814;2022-07-24T14:03:13;1.20;;;1.10;;
6053;SDS011;3055;50.886;14.814;2022-07-24T14:05:40;0.97;;;0.73;;
6053;SDS011;3055;50.886;14.814;2022-07-24T14:08:07;1.20;;;1.10;;
6053;SDS011;3055;50.886;14.814;2022-07-24T14:10:36;2.33;;;0.93;;
6053;SDS011;3055;50.886;14.814;2022-07-24T14:13:03;1.20;;;1.10;;
6053;SDS011;3055;50.886;14.814;2022-07-24T14:15:30;1.73;;;0.83;;
6053;SDS011;3055;50.886;14.814;2022-07-24T14:17:57;1.47;;;1.20;;
6053;SDS011;3055;50.886;14.814;2022-07-24T14:20:24;1.67;;;1.17;;
6053;SDS011;3055;50.886;14.814;2022-07-24T14:22:51;1.30;;;1.20;;
6053;SDS011;3055;50.886;14.814;2022-07-24T14:25:18;1.40;;;1.20;;
6053;SDS011;3055;50.886;14.814;2022-07-24T14:27:46;1.30;;;1.20;;
6053;SDS011;3055;50.886;14.814;2022-07-24T14:30:13;2.00;;;0.90;;
6053;SDS011;3055;50.886;14.814;2022-07-24T14:32:40;1.30;;;1.10;;
6053;SDS011;3055;50.886;14.814;2022-07-24T14:35:07;1.13;;;1.03;;
6053;SDS011;3055;50.886;14.814;2022-07-24T14:37:35;1.97;;;1.10;;
6053;SDS011;3055;50.886;14.814;2022-07-24T14:40:02;1.33;;;1.20;;
6053;SDS011;3055;50.886;14.814;2022-07-24T14:42:31;2.43;;;1.10;;
6053;SDS011;3055;50.886;14.814;2022-07-24T14:45:00;3.27;;;1.23;;
6053;SDS011;3055;50.886;14.814;2022-07-24T14:47:27;0.90;;;0.90;;
6053;SDS011;3055;50.886;14.814;2022-07-24T14:49:54;0.90;;;0.90;;
6053;SDS011;3055;50.886;14.814;2022-07-24T14:52:21;1.63;;;1.27;;
6053;SDS011;3055;50.886;14.814;2022-07-24T14:54:49;2.00;;;0.90;;
6053;SDS011;3055;50.886;14.814;2022-07-24T14:57:16;1.17;;;1.03;;
6053;SDS011;3055;50.886;14.814;2022-07-24T14:59:43;1.80;;;1.30;;
6053;SDS011;3055;50.886;14.814;2022-07-24T15:02:11;2.70;;;1.30;;
6053;SDS011;3055;50.886;14.814;2022-07-24T15:04:38;1.80;;;1.30;;
6053;SDS011;3055;50.886;14.814;2022-07-24T15:07:06;1.20;;;1.10;;
6053;SDS011;3055;50.886;14.814;2022-07-24T15:09:33;2.67;;;1.60;;